Moundville, AL (35474)

10:54 AM CDT on July 30, 2016 (GMT -0500)
Hunters Run (Taylorville) | | Change Station

Elev 161 ft 33.14 °N, 87.56 °W | Updated 14 seconds ago

Clear
Clear
86.2 °F
Feels Like 95 °F
N
0.2
Wind Variable Wind from SW
Gusts 2.5 mph

Today
High -- | Low -- °F
--% Chance of Precip.
Yesterday
High -- | Low -- °F
Precip. -- in
Pressure 30.04 in
Visibility 10.0 miles
Clouds Clear
Heat Index 95 °F
Dew Point 75 °F
Humidity 69%
Rainfall 0.00 in
Snow Depth Not available.
6:02 AM 7:50 PM
Waning Crescent, 12% visible
METAR KTCL 301453Z 25005KT 10SM CLR 29/24 A3004 RMK AO2 SLP170 T02940244 51006
Pressure 30.04 in
Visibility 10.0 miles
Clouds Clear
Heat Index 95 °F
Dew Point 75 °F
Humidity 69%
Rainfall 0.00 in
Snow Depth Not available.
6:02 AM 7:50 PM
Waning Crescent, 12% visible
METAR KTCL 301453Z 25005KT 10SM CLR 29/24 A3004 RMK AO2 SLP170 T02940244 51006

10-Day Weather Forecast

Almanac

Astronomy

Jul. 30, 2016 Rise Set
Actual Time
Civil Twilight
Nautical Twilight
Astronomical Twilight
Moon
Length of Visible Light
Length of Day
Tomorrow will be .
, % of the Moon is Illuminated

Today's Extremes

State Highs State Lows

Community

WunderPhotos

Upload Photos

1,928,588 photos uploaded!

WunderBlog® & News

Nearby

Air Quality

  Air Quality AQ Index Pollutant
Not available.

Snow Depth

Station Depth Elevation

Earthquake Activity

City Distance Mag. Time & Date
Minimum magnitude displayed is 2.5.

Coastal Water Temperatures

Place Temperature

Stations

Nearby Weather Stations

Station Location Temp. Windchill Dew Point Humidity Wind Precip. Elev Updated Type
                   

Watches & Warnings

There are currently no watches in effect.